»·PEaware :: N210EU KOTH-KPDX

N210EU :: KOTH-KPDX

FLIGHT INFORMATION

Flight Status: Arrived
Operator: Privately registered:
United States
More flights under this callsign
Pilot: Ryan C. (15122)
Aircraft: CESSNA T210 TURBO CENTURION
(T210)
More flights by this aircraft type
Origin: KOTH North Bend Mun
United States
Destination: KPDX Portland Intl
United States
More flights between these airports :: More routes between these airports
Route: +OTH6 OTH V287 UBG
File this flight plan on PilotEdge
Remarks:
Altitude:
(Current/Filed)
9,000ft
Speed:
(Current/Filed)
175kts
Departed: 26-Feb-18 03:56 PM
Arrived: 26-Feb-18 05:00 PM
Distance/Time
Traveled:
148nm/1:03
Distance/Time
To Go:
Arrived

Flight Plot

Page will automatically refresh every two minutes.

Flight plan parsing failed; only flown route is shown


Map Options




Map Legend


Flown Route
Filed Route
Departure Airport
Arrival Airport
Navaid (VOR, NDB)
Fix

Horizontal Profiles

Position Reports

Time Latitude Longitude Heading Altitude Ground
Speed
26-Feb-18 15:46 43.414710 -124.245038 59 25ft 0kts
26-Feb-18 15:47 43.414710 -124.245038 59 25ft 0kts
26-Feb-18 15:48 43.414710 -124.245038 59 25ft 0kts
26-Feb-18 15:49 43.414710 -124.245038 59 25ft 0kts
26-Feb-18 15:50 43.414710 -124.245038 59 25ft 0kts
26-Feb-18 15:51 43.414710 -124.245038 59 25ft 0kts
26-Feb-18 15:52 43.414710 -124.245038 59 25ft 0kts
26-Feb-18 15:53 43.414710 -124.245038 59 25ft 0kts
26-Feb-18 15:54 43.414710 -124.245038 59 25ft 0kts
26-Feb-18 15:55 43.414884 -124.244850 37 23ft 0kts
26-Feb-18 15:56 43.414789 -124.243636 149 21ft 12kts
26-Feb-18 15:57 43.410457 -124.240138 149 14ft 18kts
26-Feb-18 15:58 43.408885 -124.238898 326 12ft 0kts
26-Feb-18 15:59 43.408885 -124.238898 326 12ft 0kts
26-Feb-18 16:00 43.408885 -124.238898 326 12ft 0kts
26-Feb-18 16:01 43.408885 -124.238898 326 12ft 0kts
26-Feb-18 16:02 43.408941 -124.238735 80 12ft 2kts
26-Feb-18 16:03 43.411015 -124.239164 328 11ft 53kts
26-Feb-18 16:04 43.415668 -124.265533 248 881ft 118kts
26-Feb-18 16:05 43.425817 -124.281977 70 2007ft 126kts
26-Feb-18 16:06 43.422576 -124.234843 92 3183ft 122kts
26-Feb-18 16:07 43.417612 -124.189034 93 4280ft 121kts
26-Feb-18 16:08 43.437118 -124.157698 21 5028ft 120kts
26-Feb-18 16:09 43.467191 -124.138929 20 5875ft 118kts
26-Feb-18 16:10 43.497059 -124.120677 19 6701ft 117kts
26-Feb-18 16:11 43.521831 -124.105831 19 7378ft 117kts
26-Feb-18 16:12 43.555070 -124.086015 19 8277ft 117kts
26-Feb-18 16:13 43.579811 -124.071278 19 8936ft 117kts
26-Feb-18 16:14 43.621038 -124.046588 20 9001ft 153kts
26-Feb-18 16:15 43.654345 -124.026592 20 9001ft 162kts
26-Feb-18 16:16 43.696399 -124.001416 20 9000ft 169kts
26-Feb-18 16:17 43.746963 -123.971103 20 8999ft 170kts
26-Feb-18 16:18 43.783123 -123.949400 20 8999ft 170kts
26-Feb-18 16:19 43.826649 -123.923240 20 8999ft 170kts
26-Feb-18 16:20 43.869389 -123.897507 20 9011ft 170kts
26-Feb-18 16:21 43.913012 -123.871205 20 9015ft 171kts
26-Feb-18 16:22 43.956311 -123.845058 20 9020ft 171kts
26-Feb-18 16:23 44.000212 -123.818510 20 9023ft 172kts
26-Feb-18 16:24 44.044083 -123.791940 20 9019ft 172kts
26-Feb-18 16:25 44.087835 -123.765392 20 9015ft 172kts
26-Feb-18 16:26 44.130959 -123.739185 20 9015ft 172kts
26-Feb-18 16:27 44.174788 -123.712504 20 9011ft 172kts
26-Feb-18 16:28 44.218048 -123.686127 20 9008ft 172kts
26-Feb-18 16:29 44.260918 -123.659946 21 9006ft 172kts
26-Feb-18 16:30 44.304307 -123.633405 21 9004ft 172kts
26-Feb-18 16:31 44.347786 -123.606765 21 9002ft 173kts
26-Feb-18 16:32 44.391639 -123.579846 21 9001ft 173kts
26-Feb-18 16:33 44.435431 -123.552925 21 9001ft 173kts
26-Feb-18 16:34 44.479195 -123.525978 21 9000ft 173kts
26-Feb-18 16:35 44.522985 -123.498971 21 9000ft 173kts
26-Feb-18 16:36 44.566688 -123.471974 21 9000ft 173kts
26-Feb-18 16:37 44.608967 -123.445891 22 8999ft 172kts
26-Feb-18 16:38 44.648830 -123.421126 22 8989ft 171kts
26-Feb-18 16:39 44.690677 -123.395141 22 8989ft 170kts
26-Feb-18 16:40 44.730970 -123.370091 22 8989ft 170kts
26-Feb-18 16:41 44.771369 -123.344934 23 8989ft 170kts
26-Feb-18 16:42 44.809569 -123.321115 23 8988ft 170kts
26-Feb-18 16:43 44.852541 -123.294274 22 8987ft 171kts
26-Feb-18 16:44 44.895824 -123.267202 22 8986ft 171kts
26-Feb-18 16:45 44.939247 -123.239998 22 8984ft 171kts
26-Feb-18 16:46 44.982720 -123.212714 22 8984ft 172kts
26-Feb-18 16:47 45.026289 -123.185324 22 8984ft 173kts
26-Feb-18 16:48 45.070220 -123.157663 21 8986ft 174kts
26-Feb-18 16:49 45.114133 -123.129953 22 8735ft 174kts
26-Feb-18 16:50 45.158106 -123.102143 22 8262ft 173kts
26-Feb-18 16:51 45.201892 -123.074427 22 7793ft 172kts
26-Feb-18 16:52 45.245678 -123.046625 22 7326ft 172kts
26-Feb-18 16:53 45.288961 -123.019116 22 6867ft 171kts
26-Feb-18 16:54 45.331661 -122.991933 22 6354ft 166kts
26-Feb-18 16:55 45.373608 -122.969412 14 5724ft 162kts
26-Feb-18 16:56 45.416023 -122.950709 14 5090ft 159kts
26-Feb-18 16:57 45.457798 -122.931947 14 4448ft 158kts
26-Feb-18 16:58 45.499302 -122.913475 14 3816ft 158kts
26-Feb-18 16:59 45.532404 -122.873344 43 3176ft 160kts
26-Feb-18 17:00 45.562926 -122.828255 60 2550ft 160kts
26-Feb-18 17:01 45.580170 -122.775352 66 2475ft 139kts
26-Feb-18 17:02 45.597355 -122.727287 63 2365ft 132kts
26-Feb-18 17:03 45.610657 -122.681125 72 1643ft 115kts
26-Feb-18 17:04 45.613793 -122.643048 124 763ft 93kts
26-Feb-18 17:05 45.602265 -122.614903 117 416ft 78kts
26-Feb-18 17:06 45.592760 -122.590411 119 20ft 45kts
26-Feb-18 17:07 45.590289 -122.586604 212 20ft 0kts
26-Feb-18 17:08 45.589536 -122.585337 118 20ft 17kts
26-Feb-18 17:09 45.586757 -122.578183 116 20ft 19kts
26-Feb-18 17:10 45.584716 -122.577345 36 20ft 0kts
26-Feb-18 17:11 45.584716 -122.577345 36 20ft 0kts
26-Feb-18 17:12 45.584716 -122.577345 36 20ft 0kts
26-Feb-18 17:13 45.584716 -122.577345 36 20ft 0kts
26-Feb-18 17:14 45.584716 -122.577345 36 20ft 0kts
26-Feb-18 17:15 45.584716 -122.577345 36 20ft 0kts
26-Feb-18 17:16 45.584716 -122.577345 36 20ft 0kts
26-Feb-18 17:17 45.584716 -122.577345 36 20ft 0kts
26-Feb-18 17:18 45.584716 -122.577345 36 20ft 0kts
26-Feb-18 17:19 45.584716 -122.577345 36 20ft 0kts
26-Feb-18 17:20 45.584716 -122.577345 36 20ft 0kts
26-Feb-18 17:21 45.584716 -122.577345 36 20ft 0kts

Navigation Log

Ident Type
Flight plan parsing failed, navigation log unavailable